This is the latest recevied weather packets stored in our database for station/object IW1RID-3. If no packets are shown the sender has not sent any weather packets the latest 10 day(s).
| Time | Temp. | Humidity | Pressure | Rain* | Wind** | Luminosity | Snow |
|---|---|---|---|---|---|---|---|
| 1787535792 | 21.67° C | 79% | 1073.8 hPa | - | - | - | - |
| 1787534587 | 22.22° C | 76% | 1073.6 hPa | - | - | - | - |
| 1787532178 | 22.78° C | 78% | 1073.8 hPa | - | - | - | - |
| 1787530972 | 22.78° C | 78% | 1073.8 hPa | - | - | - | - |
| 1787529767 | 23.33° C | 74% | 1074 hPa | - | - | - | - |
| 1787528563 | 23.89° C | 74% | 1074.3 hPa | - | - | - | - |
| 1787527358 | 23.89° C | 76% | 1074.3 hPa | - | - | - | - |
| 1787526153 | 22.78° C | 83% | 1074.3 hPa | - | - | - | - |
| 1787524948 | 22.78° C | 83% | 1074.3 hPa | - | - | - | - |
| 1787523742 | 23.33° C | 82% | 1074.3 hPa | - | - | - | - |
| 1787522537 | 23.33° C | 83% | 1074.2 hPa | - | - | - | - |
| 1787521332 | 23.33° C | 85% | 1074.3 hPa | - | - | - | - |
| 1787520128 | 23.33° C | 83% | 1074.3 hPa | - | - | - | - |
| 1787518923 | 23.89° C | 82% | 1074.4 hPa | - | - | - | - |
| 1787517718 | 23.33° C | 85% | 1074.5 hPa | - | - | - | - |
| 1787516513 | 23.89° C | 84% | 1074.7 hPa | - | - | - | - |
| 1787515308 | 23.89° C | 81% | 1074.6 hPa | - | - | - | - |
| 1787514104 | 23.89° C | 81% | 1074.7 hPa | - | - | - | - |
| 1787512899 | 25° C | 76% | 1074.6 hPa | - | - | - | - |
| 1787511694 | 25° C | 75% | 1074.4 hPa | - | - | - | - |
| 1787510489 | 25.56° C | 72% | 1074.2 hPa | - | - | - | - |
| 1787509285 | 26.67° C | 70% | 1074 hPa | - | - | - | - |
| 1787508079 | 26.67° C | 68% | 1074.1 hPa | - | - | - | - |
| 1787506875 | 26.67° C | 66% | 1074 hPa | - | - | - | - |
| 1787505670 | 28.33° C | 61% | 1074.2 hPa | - | - | - | - |
* Rain since midnight (hover to see other rain measurements)
** Current wind speed in m/s (hover to see current wind gust speed)